Time;durP1;ratioP1;P1;durP2;ratioP2;P2;SDS_P1;SDS_P2;PMS_P1;PMS_P2;Temp;Humidity;BMP_temperature;BMP_pressure;BME280_temperature;BME280_humidity;BME280_pressure;Samples;Min_cycle;Max_cycle;Signal;HPM_P1;HPM_P2
2021/10/08 00:00:52;;;;;;;6.20;5.37;;;;;;;9.90;100.00;99270.06;5059684;28;20219;-64
2021/10/08 00:03:18;;;;;;;5.37;4.87;;;;;;;9.89;100.00;99268.31;5060546;28;20214;-65
2021/10/08 00:05:45;;;;;;;7.13;5.90;;;;;;;9.87;100.00;99264.91;5063666;28;20225;-65
2021/10/08 00:08:11;;;;;;;6.70;6.00;;;;;;;9.83;100.00;99263.34;5060412;28;20217;-65
2021/10/08 00:10:39;;;;;;;7.30;6.07;;;;;;;9.79;100.00;99257.34;5060344;28;20244;-65
2021/10/08 00:13:06;;;;;;;6.87;6.17;;;;;;;9.71;100.00;99259.50;5060374;28;20220;-65
2021/10/08 00:15:32;;;;;;;6.77;6.07;;;;;;;9.56;100.00;99254.09;5056430;28;20583;-65
2021/10/08 00:17:59;;;;;;;8.33;6.57;;;;;;;9.39;100.00;99261.97;5060175;28;20222;-65
2021/10/08 00:20:25;;;;;;;7.83;6.50;;;;;;;9.20;100.00;99247.91;5059116;28;20214;-65
2021/10/08 00:22:52;;;;;;;8.20;6.70;;;;;;;9.07;100.00;99249.41;5060558;28;20211;-65
2021/10/08 00:25:18;;;;;;;7.93;7.13;;;;;;;8.97;100.00;99258.63;5063745;28;20257;-65
2021/10/08 00:27:46;;;;;;;9.23;7.47;;;;;;;8.87;100.00;99252.09;5060749;28;20666;-65
2021/10/08 00:30:12;;;;;;;8.30;6.87;;;;;;;8.81;100.00;99249.72;5060225;28;20243;-65
2021/10/08 00:32:39;;;;;;;7.87;6.77;;;;;;;8.73;100.00;99254.47;5060363;28;20226;-65
2021/10/08 00:35:06;;;;;;;8.67;6.57;;;;;;;8.70;100.00;99250.16;5063080;28;20216;-65
2021/10/08 00:37:33;;;;;;;8.60;7.70;;;;;;;8.61;100.00;99249.72;5061169;28;20582;-65
2021/10/08 00:39:59;;;;;;;8.00;6.97;;;;;;;8.55;100.00;99250.84;5059746;28;20223;-65
2021/10/08 00:42:28;;;;;;;8.40;7.07;;;;;;;8.50;100.00;99258.09;5059759;28;20215;-65
2021/10/08 00:44:55;;;;;;;9.50;7.70;;;;;;;8.43;100.00;99251.38;5060995;28;20265;-65
2021/10/08 00:47:22;;;;;;;9.93;7.30;;;;;;;8.40;100.00;99250.66;5060979;28;20220;-65
2021/10/08 00:49:49;;;;;;;8.07;6.97;;;;;;;8.36;100.00;99243.81;5059934;28;20238;-65
2021/10/08 00:52:15;;;;;;;9.40;7.97;;;;;;;8.32;100.00;99252.78;5059344;28;20725;-65
2021/10/08 00:54:42;;;;;;;7.87;7.07;;;;;;;8.27;100.00;99252.13;5061026;28;20218;-65
2021/10/08 00:57:08;;;;;;;9.33;8.33;;;;;;;8.29;100.00;99247.63;5060045;28;20215;-65
2021/10/08 00:59:36;;;;;;;14.83;8.47;;;;;;;8.27;100.00;99246.84;5058126;28;20223;-65
2021/10/08 01:02:04;;;;;;;9.67;7.97;;;;;;;8.22;100.00;99247.03;5058121;28;20219;-66
2021/10/08 01:04:33;;;;;;;11.57;9.13;;;;;;;8.23;100.00;99242.63;5060506;28;20218;-65
2021/10/08 01:06:59;;;;;;;11.57;9.27;;;;;;;8.17;100.00;99238.44;5059378;28;20636;-66
2021/10/08 01:09:26;;;;;;;10.23;8.73;;;;;;;8.15;100.00;99234.16;5058385;28;20223;-65
2021/10/08 01:11:53;;;;;;;12.17;8.77;;;;;;;8.16;100.00;99235.88;5056088;28;20206;-65
2021/10/08 01:14:19;;;;;;;10.77;9.13;;;;;;;8.11;100.00;99229.94;5060301;28;20599;-65
2021/10/08 01:16:45;;;;;;;12.00;9.13;;;;;;;8.13;100.00;99230.72;5060107;28;20580;-65
2021/10/08 01:19:13;;;;;;;10.77;8.80;;;;;;;8.15;100.00;99234.16;5058041;28;20219;-65
2021/10/08 01:21:41;;;;;;;10.87;8.57;;;;;;;8.13;100.00;99238.63;5058059;28;20228;-65
2021/10/08 01:24:08;;;;;;;11.60;9.13;;;;;;;8.18;100.00;99239.28;5059894;28;20223;-65
2021/10/08 01:26:34;;;;;;;9.40;8.33;;;;;;;8.14;100.00;99238.56;5060219;28;20238;-65
2021/10/08 01:29:01;;;;;;;10.90;8.90;;;;;;;8.08;100.00;99225.66;5058065;28;20222;-65
2021/10/08 01:31:27;;;;;;;11.10;8.90;;;;;;;8.10;100.00;99233.50;5058093;28;20255;-65
2021/10/08 01:33:54;;;;;;;9.47;8.47;;;;;;;8.11;100.00;99225.53;5059335;28;20589;-65
2021/10/08 01:36:20;;;;;;;9.83;8.77;;;;;;;8.08;100.00;99219.53;5059402;28;20217;-65
2021/10/08 01:38:48;;;;;;;10.67;8.87;;;;;;;8.06;100.00;99226.63;5057547;28;20215;-65
2021/10/08 01:41:15;;;;;;;11.97;9.43;;;;;;;8.01;100.00;99220.69;5057921;28;20578;-66
2021/10/08 01:43:41;;;;;;;10.17;9.03;;;;;;;8.03;100.00;99229.41;5058591;28;20243;-65
2021/10/08 01:46:07;;;;;;;10.97;8.93;;;;;;;7.97;100.00;99225.22;5060896;28;20230;-65
2021/10/08 01:48:34;;;;;;;11.97;9.23;;;;;;;8.11;100.00;99228.16;5057851;28;20218;-65
2021/10/08 01:51:01;;;;;;;10.90;9.50;;;;;;;8.08;100.00;99227.44;5057450;28;20244;-65
2021/10/08 01:53:27;;;;;;;10.97;9.53;;;;;;;8.00;100.00;99219.84;5022838;28;1028099;-65
2021/10/08 01:55:55;;;;;;;10.87;9.47;;;;;;;7.91;100.00;99229.91;5061908;28;20244;-65
2021/10/08 01:58:22;;;;;;;10.93;9.07;;;;;;;7.87;100.00;99228.31;5049743;28;20215;-65
2021/10/08 02:00:49;;;;;;;10.23;8.97;;;;;;;7.78;100.00;99224.28;5058321;28;20222;-65
2021/10/08 02:03:15;;;;;;;10.77;8.10;;;;;;;7.74;100.00;99227.09;5056781;28;20785;-65
2021/10/08 02:05:42;;;;;;;11.30;8.80;;;;;;;7.73;100.00;99231.50;5054578;28;20215;-65
2021/10/08 02:08:08;;;;;;;9.60;8.43;;;;;;;7.66;100.00;99231.84;5048747;28;20219;-65
2021/10/08 02:10:35;;;;;;;11.00;8.73;;;;;;;7.64;100.00;99225.75;5058407;28;20238;-65
2021/10/08 02:13:03;;;;;;;10.77;9.00;;;;;;;7.60;100.00;99224.19;5058401;28;20210;-65
2021/10/08 02:15:29;;;;;;;12.73;10.10;;;;;;;7.62;100.00;99228.47;5061812;28;20221;-65
2021/10/08 02:17:55;;;;;;;10.50;8.70;;;;;;;7.59;100.00;99228.56;5058606;28;20211;-65
2021/10/08 02:20:22;;;;;;;12.60;9.73;;;;;;;7.62;100.00;99227.59;5058007;28;20230;-64
2021/10/08 02:22:48;;;;;;;12.93;10.23;;;;;;;7.63;100.00;99224.03;5057343;28;20223;-65
2021/10/08 02:25:15;;;;;;;11.50;10.27;;;;;;;7.61;100.00;99223.25;5060657;28;20214;-65
2021/10/08 02:27:42;;;;;;;12.73;10.67;;;;;;;7.60;100.00;99229.44;5058838;28;20298;-64
2021/10/08 02:30:11;;;;;;;12.23;10.40;;;;;;;7.58;100.00;99226.00;5056119;28;20238;-64
2021/10/08 02:32:37;;;;;;;12.10;9.20;;;;;;;7.56;100.00;99220.81;5057807;28;20225;-65
2021/10/08 02:35:05;;;;;;;12.13;9.77;;;;;;;7.57;100.00;99221.66;5060665;28;20218;-65
2021/10/08 02:37:32;;;;;;;13.10;9.87;;;;;;;7.53;100.00;99222.72;5058559;28;20680;-65
2021/10/08 02:39:58;;;;;;;9.67;8.67;;;;;;;7.55;100.00;99228.78;5057646;28;20222;-65
2021/10/08 02:42:25;;;;;;;10.23;8.87;;;;;;;7.48;100.00;99229.94;5057588;28;20214;-65
2021/10/08 02:44:51;;;;;;;11.43;8.70;;;;;;;7.40;100.00;99242.50;5060224;28;20219;-64
2021/10/08 02:47:19;;;;;;;9.90;8.03;;;;;;;7.37;100.00;99232.13;5059086;28;20216;-65
2021/10/08 02:49:46;;;;;;;12.43;8.97;;;;;;;7.33;100.00;99234.03;5057753;28;20212;-65
2021/10/08 02:52:12;;;;;;;10.40;8.57;;;;;;;7.32;100.00;99234.94;5057654;28;20264;-65
2021/10/08 02:54:39;;;;;;;10.97;7.70;;;;;;;7.28;100.00;99234.25;5057509;28;20701;-65
2021/10/08 02:57:05;;;;;;;9.47;8.47;;;;;;;7.23;100.00;99234.44;5059324;28;20583;-65
2021/10/08 02:59:32;;;;;;;9.40;7.77;;;;;;;7.19;100.00;99230.19;5057681;28;20223;-65
2021/10/08 03:01:58;;;;;;;9.03;7.80;;;;;;;7.15;100.00;99225.97;5057634;28;20223;-65
2021/10/08 03:04:26;;;;;;;9.40;7.90;;;;;;;7.13;100.00;99225.19;5058967;28;20227;-65
2021/10/08 03:06:52;;;;;;;8.67;7.77;;;;;;;7.11;100.00;99234.03;5059385;28;20218;-65
2021/10/08 03:09:19;;;;;;;10.40;8.83;;;;;;;7.08;100.00;99228.91;5057090;28;20583;-65
2021/10/08 03:11:45;;;;;;;9.10;8.00;;;;;;;7.08;100.00;99223.66;5053992;28;20254;-65
2021/10/08 03:14:12;;;;;;;9.00;8.00;;;;;;;7.06;100.00;99225.47;5058193;28;20218;-65
2021/10/08 03:16:38;;;;;;;14.30;8.47;;;;;;;7.07;100.00;99233.28;5059531;28;20672;-65
2021/10/08 03:19:05;;;;;;;11.80;9.03;;;;;;;7.00;100.00;99236.19;5057168;28;20212;-65
2021/10/08 03:21:33;;;;;;;11.03;9.53;;;;;;;7.11;100.00;99237.53;5055439;28;20231;-65
2021/10/08 03:23:59;;;;;;;11.07;8.70;;;;;;;7.04;100.00;99236.06;5057625;28;20219;-65
2021/10/08 03:26:26;;;;;;;11.60;9.77;;;;;;;7.04;100.00;99243.94;5059979;28;20212;-64
2021/10/08 03:28:52;;;;;;;11.13;9.37;;;;;;;7.03;100.00;99236.94;5056711;28;20696;-65
2021/10/08 03:31:19;;;;;;;9.87;8.43;;;;;;;7.10;100.00;99238.44;5057064;28;20236;-65
2021/10/08 03:33:46;;;;;;;11.07;8.63;;;;;;;7.11;100.00;99242.78;5057254;28;20594;-65
2021/10/08 03:36:18;;;;;;;11.17;8.83;;;;;;;7.06;100.00;99239.47;5060314;28;20217;-65
2021/10/08 03:38:46;;;;;;;11.43;8.80;;;;;;;7.07;100.00;99238.56;5056991;28;20216;-65
2021/10/08 03:41:15;;;;;;;11.53;8.87;;;;;;;7.03;100.00;99234.31;5056718;28;20214;-65
2021/10/08 03:43:42;;;;;;;10.93;8.90;;;;;;;7.03;100.00;99244.84;5055414;28;20225;-65
2021/10/08 03:46:10;;;;;;;10.87;9.60;;;;;;;7.11;100.00;99244.56;5058970;28;20740;-64
2021/10/08 03:51:23;;;;;;;12.40;9.70;;;;;;;7.28;100.00;99242.13;5056520;28;20247;-65
2021/10/08 03:53:51;;;;;;;14.03;10.73;;;;;;;7.30;100.00;99244.63;5060039;28;20241;-65
2021/10/08 03:56:17;;;;;;;14.37;9.90;;;;;;;7.38;100.00;99241.72;5056635;28;20234;-65
2021/10/08 03:58:43;;;;;;;11.87;10.20;;;;;;;7.37;100.00;99240.00;5056560;28;20220;-65
2021/10/08 04:01:10;;;;;;;14.70;9.97;;;;;;;7.33;100.00;99241.03;5056749;28;20219;-65
2021/10/08 04:03:36;;;;;;;11.53;9.17;;;;;;;7.29;100.00;99240.31;5060111;28;20228;-65
2021/10/08 04:06:03;;;;;;;12.33;9.40;;;;;;;7.27;100.00;99241.28;5057287;28;20212;-65
2021/10/08 04:08:30;;;;;;;11.70;9.07;;;;;;;7.27;100.00;99245.69;5056442;28;20209;-65
2021/10/08 04:10:58;;;;;;;12.13;9.73;;;;;;;7.25;100.00;99258.88;5056283;28;20729;-65
2021/10/08 04:13:24;;;;;;;11.97;9.13;;;;;;;7.20;100.00;99260.00;5057876;28;20242;-65
2021/10/08 04:15:51;;;;;;;11.37;9.77;;;;;;;7.21;100.00;99254.66;5057425;28;20226;-65
2021/10/08 04:18:17;;;;;;;13.00;10.40;;;;;;;7.16;100.00;99254.00;5056674;28;20210;-65
2021/10/08 04:20:44;;;;;;;12.07;9.90;;;;;;;7.16;100.00;99246.09;5056331;28;20212;-65
2021/10/08 04:23:10;;;;;;;13.67;10.07;;;;;;;7.17;100.00;99244.31;5058865;28;20212;-65
2021/10/08 04:25:37;;;;;;;13.17;10.20;;;;;;;7.18;100.00;99243.41;5056425;28;20584;-65
2021/10/08 04:28:05;;;;;;;14.10;10.53;;;;;;;7.22;100.00;99242.38;5056106;28;20233;-65
2021/10/08 04:30:32;;;;;;;14.87;10.33;;;;;;;7.21;100.00;99246.75;5056332;28;20216;-65
2021/10/08 04:32:58;;;;;;;13.53;10.73;;;;;;;7.22;100.00;99248.50;5058430;28;20223;-65
2021/10/08 04:35:25;;;;;;;14.23;10.60;;;;;;;7.21;100.00;99246.75;5057951;28;20220;-65
2021/10/08 04:37:51;;;;;;;15.77;10.90;;;;;;;7.19;100.00;99248.59;5056376;28;20222;-65
2021/10/08 04:40:18;;;;;;;14.53;11.23;;;;;;;7.20;100.00;99252.09;5054568;28;20211;-65
2021/10/08 04:42:44;;;;;;;13.30;10.73;;;;;;;7.13;100.00;99256.72;5057806;28;20598;-66
2021/10/08 04:45:12;;;;;;;14.57;10.23;;;;;;;7.09;100.00;99241.97;5059070;28;20222;-65
2021/10/08 04:47:39;;;;;;;13.53;11.00;;;;;;;7.12;100.00;99246.25;5059999;28;20227;-66
2021/10/08 04:50:06;;;;;;;13.67;10.27;;;;;;;7.09;100.00;99244.59;5060077;28;20212;-66
2021/10/08 04:52:33;;;;;;;12.30;10.53;;;;;;;7.10;100.00;99243.72;5058429;28;20249;-65
2021/10/08 04:54:59;;;;;;;13.50;10.43;;;;;;;7.14;100.00;99244.44;5062560;28;20209;-65
2021/10/08 04:57:26;;;;;;;19.10;11.40;;;;;;;7.13;100.00;99243.59;5059824;28;20212;-66
2021/10/08 04:59:52;;;;;;;16.20;11.20;;;;;;;7.07;100.00;99243.81;5059763;28;20223;-65
2021/10/08 05:02:20;;;;;;;14.93;11.13;;;;;;;7.11;100.00;99242.78;5060017;28;20220;-65
2021/10/08 05:04:46;;;;;;;13.77;10.93;;;;;;;7.09;100.00;99241.13;5060626;28;20692;-65
2021/10/08 05:07:13;;;;;;;14.77;11.23;;;;;;;7.10;100.00;99243.72;5059751;28;20217;-65
2021/10/08 05:09:39;;;;;;;13.50;10.70;;;;;;;7.05;100.00;99245.66;5059584;28;20214;-65
2021/10/08 05:12:06;;;;;;;16.53;12.13;;;;;;;7.02;100.00;99229.97;5059605;28;20241;-65
2021/10/08 05:14:32;;;;;;;16.80;11.83;;;;;;;6.98;100.00;99238.91;5062913;28;20218;-65
2021/10/08 05:16:59;;;;;;;14.57;11.13;;;;;;;6.96;100.00;99243.34;5059403;28;20215;-65
2021/10/08 05:19:27;;;;;;;15.63;11.73;;;;;;;6.99;100.00;99245.88;5059435;28;20608;-65
2021/10/08 05:21:54;;;;;;;15.17;11.00;;;;;;;6.98;100.00;99248.56;5059463;28;20238;-65
2021/10/08 05:24:21;;;;;;;15.60;12.07;;;;;;;6.92;100.00;99239.16;5062845;28;20223;-65
2021/10/08 05:26:48;;;;;;;16.07;12.23;;;;;;;7.02;100.00;99245.75;5059419;28;20580;-65
2021/10/08 05:29:15;;;;;;;14.03;10.67;;;;;;;6.97;100.00;99239.81;5059062;28;20747;-65
2021/10/08 05:31:41;;;;;;;12.73;10.20;;;;;;;6.86;100.00;99244.63;5057536;28;20236;-66
2021/10/08 05:34:08;;;;;;;13.60;11.03;;;;;;;6.83;100.00;99244.72;5062908;28;20208;-65
2021/10/08 05:36:36;;;;;;;13.67;10.73;;;;;;;6.78;100.00;99248.44;5059252;28;20223;-65
2021/10/08 05:39:02;;;;;;;15.57;10.97;;;;;;;6.78;100.00;99251.91;5059171;28;20230;-66
2021/10/08 05:41:29;;;;;;;14.47;10.60;;;;;;;6.74;100.00;99257.34;5059010;28;20213;-65
2021/10/08 05:43:55;;;;;;;13.60;10.73;;;;;;;6.75;100.00;99257.28;5062197;28;20223;-66
2021/10/08 05:46:22;;;;;;;15.83;10.97;;;;;;;6.76;100.00;99256.38;5059068;28;20677;-65
2021/10/08 05:48:48;;;;;;;13.80;11.43;;;;;;;6.80;100.00;99259.75;5058936;28;20222;-66
2021/10/08 05:51:15;;;;;;;14.23;10.80;;;;;;;6.80;100.00;99254.50;5058751;28;20244;-65
2021/10/08 05:53:43;;;;;;;13.47;11.13;;;;;;;6.79;100.00;99258.88;5061263;28;20255;-66
2021/10/08 05:56:09;;;;;;;15.90;12.20;;;;;;;6.79;100.00;99245.72;5058690;28;20674;-65
2021/10/08 05:58:36;;;;;;;18.00;13.00;;;;;;;6.84;100.00;99256.94;5056566;28;20260;-64
2021/10/08 06:01:02;;;;;;;18.47;13.07;;;;;;;6.85;100.00;99256.03;5058288;28;20696;-65
2021/10/08 06:03:29;;;;;;;17.40;13.33;;;;;;;6.91;100.00;99263.69;5061047;28;20223;-65
2021/10/08 06:05:55;;;;;;;17.17;12.83;;;;;;;6.95;100.00;99260.03;5059701;28;20219;-66
2021/10/08 06:08:22;;;;;;;17.33;13.43;;;;;;;7.01;100.00;99257.19;5058603;28;20212;-66
2021/10/08 06:10:50;;;;;;;18.17;13.60;;;;;;;7.06;100.00;99263.13;5058619;28;20603;-66
2021/10/08 06:13:16;;;;;;;17.27;13.17;;;;;;;7.12;100.00;99267.28;5060162;28;20739;-66
2021/10/08 06:15:43;;;;;;;19.63;12.93;;;;;;;7.17;100.00;99266.22;5060164;28;20240;-65
2021/10/08 06:18:10;;;;;;;17.37;13.33;;;;;;;7.16;100.00;99266.28;5058240;28;20211;-65
2021/10/08 06:20:36;;;;;;;18.17;13.57;;;;;;;7.22;100.00;99269.53;5058019;28;20681;-65
2021/10/08 06:23:03;;;;;;;17.47;12.67;;;;;;;7.23;100.00;99266.81;5057779;28;20225;-65
2021/10/08 06:25:29;;;;;;;16.97;12.80;;;;;;;7.32;100.00;99263.00;5060369;28;20212;-66
2021/10/08 06:27:57;;;;;;;17.33;13.40;;;;;;;7.42;100.00;99261.72;5058051;28;20216;-65
2021/10/08 06:30:24;;;;;;;19.30;13.53;;;;;;;7.44;100.00;99270.41;5057819;28;20662;-65
2021/10/08 06:32:50;;;;;;;18.10;12.53;;;;;;;7.49;100.00;99268.47;5059358;28;20247;-65
2021/10/08 06:35:17;;;;;;;17.60;13.03;;;;;;;7.59;100.00;99269.84;5060464;28;20225;-66
2021/10/08 06:37:44;;;;;;;18.40;13.47;;;;;;;7.66;100.00;99279.19;5057896;28;20214;-65
2021/10/08 06:40:12;;;;;;;17.43;13.53;;;;;;;7.73;100.00;99283.28;5057986;28;20212;-66
2021/10/08 06:42:38;;;;;;;18.63;13.03;;;;;;;7.75;100.00;99278.81;5059059;28;20210;-65
2021/10/08 06:45:07;;;;;;;18.57;14.23;;;;;;;7.86;100.00;99287.16;5060749;28;20319;-67
2021/10/08 06:47:34;;;;;;;19.73;14.13;;;;;;;7.91;100.00;99277.28;5057644;28;20219;-65
2021/10/08 06:50:00;;;;;;;19.10;13.90;;;;;;;7.96;100.00;99275.34;5055777;28;20215;-65
2021/10/08 06:52:27;;;;;;;18.80;13.97;;;;;;;8.02;100.00;99277.72;5058169;28;20245;-65
2021/10/08 06:54:53;;;;;;;16.50;13.07;;;;;;;8.11;100.00;99279.97;5060509;28;20225;-65
2021/10/08 06:57:20;;;;;;;17.40;13.40;;;;;;;8.19;100.00;99277.84;5057586;28;20218;-65
2021/10/08 06:59:46;;;;;;;18.37;13.57;;;;;;;8.27;100.00;99270.53;5057729;28;20227;-65
2021/10/08 07:02:14;;;;;;;18.33;13.90;;;;;;;8.36;100.00;99270.16;5057242;28;20222;-65
2021/10/08 07:04:41;;;;;;;19.80;14.33;;;;;;;8.45;100.00;99272.41;5060818;28;20223;-66
2021/10/08 07:07:07;;;;;;;18.97;13.77;;;;;;;8.55;100.00;99274.56;5057133;28;20227;-65
2021/10/08 07:09:34;;;;;;;18.50;13.97;;;;;;;8.67;100.00;99270.53;5056689;28;20701;-65
2021/10/08 07:12:00;;;;;;;18.77;14.20;;;;;;;8.73;100.00;99259.72;5057385;28;20254;-65
2021/10/08 07:14:26;;;;;;;17.47;13.13;;;;;;;8.79;100.00;99260.31;5059433;28;20208;-65
2021/10/08 07:16:54;;;;;;;18.67;13.00;;;;;;;8.87;100.00;99262.63;5057131;28;20214;-65
2021/10/08 07:19:23;;;;;;;15.50;11.83;;;;;;;8.95;100.00;99264.00;5056938;28;20214;-65
2021/10/08 07:21:50;;;;;;;16.97;13.67;;;;;;;9.03;100.00;99264.50;5057265;28;20598;-65
2021/10/08 07:24:17;;;;;;;16.80;13.70;;;;;;;9.17;100.00;99267.38;5060884;28;20218;-65
2021/10/08 07:26:44;;;;;;;15.90;12.67;;;;;;;9.25;100.00;99274.94;5057112;28;20226;-65
2021/10/08 07:29:10;;;;;;;15.37;12.70;;;;;;;9.29;100.00;99281.75;5056947;28;20223;-65
2021/10/08 07:31:37;;;;;;;16.00;12.53;;;;;;;9.36;100.00;99273.50;5056708;28;20691;-65
2021/10/08 07:34:03;;;;;;;15.03;12.60;;;;;;;9.46;100.00;99273.94;5060124;28;20214;-65
2021/10/08 07:36:31;;;;;;;13.97;11.23;;;;;;;9.51;100.00;99277.22;5057442;28;20214;-65
2021/10/08 07:38:58;;;;;;;14.60;12.00;;;;;;;9.55;100.00;99278.78;5056680;28;20224;-65
2021/10/08 07:41:24;;;;;;;14.43;11.53;;;;;;;9.66;100.00;99274.72;5055259;28;20240;-65
2021/10/08 07:43:51;;;;;;;15.23;11.83;;;;;;;9.71;100.00;99275.34;5059831;28;20212;-65
2021/10/08 07:46:17;;;;;;;13.10;11.27;;;;;;;9.80;100.00;99268.78;5057489;28;20217;-65
2021/10/08 07:48:44;;;;;;;12.97;10.57;;;;;;;9.89;100.00;99279.75;5056542;28;20226;-65
2021/10/08 07:51:10;;;;;;;12.73;11.10;;;;;;;9.95;100.00;99270.66;5056569;28;20595;-65
2021/10/08 07:53:38;;;;;;;14.17;11.03;;;;;;;10.10;100.00;99262.03;5059380;28;20247;-65
2021/10/08 07:56:05;;;;;;;13.57;10.90;;;;;;;10.15;100.00;99265.31;5057763;28;20230;-65
2021/10/08 07:58:32;;;;;;;13.13;10.60;;;;;;;10.34;100.00;99271.38;5056623;28;20217;-65
2021/10/08 08:01:00;;;;;;;12.37;10.60;;;;;;;10.39;100.00;99269.38;5056832;28;20221;-65
2021/10/08 08:03:28;;;;;;;15.63;10.43;;;;;;;10.38;100.00;99268.50;5058947;28;20225;-65
2021/10/08 08:05:54;;;;;;;14.13;11.03;;;;;;;10.54;100.00;99271.22;5057552;28;20675;-65
2021/10/08 08:08:21;;;;;;;12.13;9.30;;;;;;;10.62;100.00;99271.69;5055007;28;20215;-65
2021/10/08 08:10:49;;;;;;;12.87;9.77;;;;;;;10.61;100.00;99269.97;5056632;28;20218;-65
2021/10/08 08:13:17;;;;;;;16.80;10.07;;;;;;;10.73;100.00;99261.41;5058787;28;20247;-65
2021/10/08 08:15:43;;;;;;;14.23;10.17;;;;;;;10.89;100.00;99271.09;5057951;28;20226;-65
2021/10/08 08:18:10;;;;;;;14.43;10.13;;;;;;;10.97;100.00;99273.34;5056541;28;20228;-65
2021/10/08 08:20:36;;;;;;;11.83;10.07;;;;;;;11.04;100.00;99269.44;5057463;28;20208;-65
2021/10/08 08:23:03;;;;;;;12.30;10.30;;;;;;;11.08;100.00;99271.84;5062137;28;20212;-65
2021/10/08 08:25:29;;;;;;;11.27;9.40;;;;;;;11.16;100.00;99267.00;5062350;28;20215;-65
2021/10/08 08:27:57;;;;;;;11.30;10.10;;;;;;;11.28;100.00;99273.41;5060514;28;20222;-66
2021/10/08 08:30:24;;;;;;;11.67;10.00;;;;;;;11.36;100.00;99271.22;5060338;28;20213;-65
2021/10/08 08:32:50;;;;;;;10.23;8.70;;;;;;;11.41;100.00;99274.47;5058502;28;20238;-65
2021/10/08 08:35:17;;;;;;;10.13;9.03;;;;;;;11.59;100.00;99269.06;5059897;28;20213;-65
2021/10/08 08:37:43;;;;;;;13.63;9.63;;;;;;;11.76;100.00;99266.34;5059246;28;20212;-64
2021/10/08 08:40:11;;;;;;;9.50;8.30;;;;;;;11.84;100.00;99265.88;5058901;28;20219;-64
2021/10/08 08:42:38;;;;;;;10.30;8.63;;;;;;;11.87;100.00;99265.72;5056835;28;20218;-64
2021/10/08 08:45:07;;;;;;;12.27;8.70;;;;;;;11.97;100.00;99270.41;5062858;28;20214;-65
2021/10/08 08:47:34;;;;;;;11.10;8.40;;;;;;;12.01;100.00;99256.06;5059921;28;20230;-65
2021/10/08 08:50:01;;;;;;;10.37;8.27;;;;;;;12.11;100.00;99264.34;5060197;28;21542;-64
2021/10/08 08:52:27;;;;;;;10.43;8.80;;;;;;;12.20;100.00;99269.09;5058397;28;20261;-63
2021/10/08 08:54:54;;;;;;;10.87;8.23;;;;;;;12.40;100.00;99268.81;5062652;28;20214;-64
2021/10/08 08:57:22;;;;;;;9.60;8.30;;;;;;;12.57;100.00;99260.69;5059792;28;20214;-65
2021/10/08 09:00:05;;;;;;;9.30;8.03;;;;;;;12.70;100.00;99256.34;5058209;28;20214;-65
2021/10/08 09:02:35;;;;;;;10.83;8.17;;;;;;;12.82;100.00;99259.13;5062156;28;20585;-65
2021/10/08 09:05:03;;;;;;;9.70;8.53;;;;;;;12.95;98.79;99254.81;5059986;28;20220;-65
2021/10/08 09:07:34;;;;;;;9.37;8.37;;;;;;;13.16;99.05;99252.66;5059874;28;20218;-65
2021/10/08 09:10:13;;;;;;;10.13;7.60;;;;;;;13.26;96.61;99256.44;5055103;28;20672;-65
2021/10/08 09:12:40;;;;;;;12.07;8.33;;;;;;;13.43;93.83;99258.88;5053500;28;20239;-65
2021/10/08 09:15:08;;;;;;;9.10;8.20;;;;;;;13.55;93.56;99252.78;5055887;28;20218;-65
2021/10/08 09:17:36;;;;;;;10.40;8.10;;;;;;;13.53;93.85;99249.41;5055640;28;20215;-65
2021/10/08 09:20:06;;;;;;;9.17;8.20;;;;;;;13.56;94.61;99249.22;5055571;28;20216;-65
2021/10/08 09:22:51;;;;;;;10.70;8.33;;;;;;;13.46;92.72;99246.25;5055624;28;20230;-65
2021/10/08 09:25:21;;;;;;;8.50;7.57;;;;;;;13.58;92.96;99249.97;5053831;28;20212;-65
2021/10/08 09:27:49;;;;;;;8.83;7.77;;;;;;;13.63;92.60;99250.53;5055471;28;20299;-65
2021/10/08 09:30:16;;;;;;;10.53;8.63;;;;;;;13.78;91.59;99249.53;5055636;28;20211;-65
2021/10/08 09:32:47;;;;;;;8.80;7.90;;;;;;;13.81;92.35;99252.84;5055220;28;20236;-65
2021/10/08 09:35:15;;;;;;;9.33;7.63;;;;;;;13.90;91.78;99248.75;5055133;28;20227;-65
2021/10/08 09:37:43;;;;;;;8.10;7.30;;;;;;;14.04;91.52;99248.69;5053035;28;20219;-65
2021/10/08 09:40:25;;;;;;;8.63;7.73;;;;;;;14.10;91.19;99241.16;5055008;28;20217;-65
2021/10/08 09:42:56;;;;;;;9.87;8.10;;;;;;;14.19;88.80;99245.06;5055191;28;20595;-65
2021/10/08 09:45:43;;;;;;;9.97;7.67;;;;;;;14.30;92.17;99242.56;5055300;28;20227;-65
2021/10/08 09:48:12;;;;;;;8.87;7.37;;;;;;;14.40;92.66;99254.25;5053604;28;20589;-65
2021/10/08 09:50:57;;;;;;;9.53;7.20;;;;;;;14.43;91.46;99251.41;5054934;28;20674;-65
2021/10/08 09:53:24;;;;;;;8.47;7.27;;;;;;;14.49;92.12;99254.50;5053369;28;20255;-65
2021/10/08 09:55:52;;;;;;;8.17;7.30;;;;;;;14.60;89.58;99261.78;5054640;28;20223;-66
2021/10/08 09:58:19;;;;;;;9.47;7.17;;;;;;;14.53;87.73;99255.13;5054992;28;20270;-65
2021/10/08 10:00:49;;;;;;;9.60;7.87;;;;;;;14.46;89.79;99248.53;5054669;28;20228;-65
2021/10/08 10:03:19;;;;;;;10.53;7.57;;;;;;;14.54;88.73;99252.38;5052582;28;20623;-65
2021/10/08 10:05:46;;;;;;;8.77;7.30;;;;;;;14.50;88.53;99245.59;5054413;28;20224;-65
2021/10/08 10:08:13;;;;;;;9.27;7.47;;;;;;;14.50;88.21;99247.38;5054564;28;20221;-66
2021/10/08 10:10:40;;;;;;;8.27;7.30;;;;;;;14.48;90.10;99251.97;5054378;28;20225;-66
2021/10/08 10:13:09;;;;;;;9.13;7.30;;;;;;;14.37;90.65;99250.00;5054300;28;20244;-66
2021/10/08 10:15:36;;;;;;;9.23;7.57;;;;;;;14.46;90.66;99243.22;5054704;28;20225;-65
2021/10/08 10:18:04;;;;;;;8.47;7.30;;;;;;;14.48;92.05;99247.47;5056710;28;20629;-65
2021/10/08 10:20:35;;;;;;;11.17;7.83;;;;;;;14.63;88.92;99257.09;5058141;28;20702;-65
2021/10/08 10:23:04;;;;;;;9.87;7.87;;;;;;;14.58;87.62;99253.03;5060118;28;20213;-65
2021/10/08 10:25:32;;;;;;;8.70;7.03;;;;;;;14.60;89.05;99245.81;5059851;28;20220;-65
2021/10/08 10:27:59;;;;;;;10.20;7.63;;;;;;;14.73;88.40;99241.34;5058285;28;20216;-65
2021/10/08 10:30:26;;;;;;;8.43;7.13;;;;;;;14.72;87.87;99244.97;5058347;28;20213;-65
2021/10/08 10:32:53;;;;;;;9.43;7.53;;;;;;;14.79;89.81;99246.25;5060413;28;20236;-65
2021/10/08 10:35:48;;;;;;;8.60;7.27;;;;;;;14.83;88.96;99245.06;5059688;28;20217;-65
2021/10/08 10:38:26;;;;;;;9.10;7.43;;;;;;;14.88;86.95;99248.28;5057842;28;20209;-65
2021/10/08 10:41:23;;;;;;;10.67;7.60;;;;;;;14.88;89.54;99234.97;5060949;28;20222;-66
2021/10/08 10:43:54;;;;;;;9.27;6.73;;;;;;;14.89;88.05;99240.19;5049709;28;20260;-65
2021/10/08 10:46:26;;;;;;;8.60;7.37;;;;;;;14.93;88.10;99243.50;5058008;28;20268;-65
2021/10/08 10:52:26;;;;;;;9.43;7.23;;;;;;;15.07;86.99;99241.59;5033274;28;20268;-65
2021/10/08 10:55:10;;;;;;;8.00;6.97;;;;;;;15.13;87.30;99240.28;5054948;28;20226;-65
2021/10/08 10:58:05;;;;;;;9.73;7.00;;;;;;;15.25;86.56;99240.28;5057242;28;20678;-65
2021/10/08 11:00:45;;;;;;;11.13;7.77;;;;;;;15.35;86.62;99245.84;5059728;28;20300;-64
2021/10/08 11:03:14;;;;;;;9.23;7.23;;;;;;;15.42;85.99;99247.97;5047800;28;20231;-65
2021/10/08 11:06:03;;;;;;;8.10;7.30;;;;;;;15.36;87.78;99244.88;5055472;28;20251;-65
2021/10/08 11:08:31;;;;;;;9.13;7.40;;;;;;;15.47;88.15;99235.16;5052647;28;20217;-65
2021/10/08 11:11:21;;;;;;;7.87;6.93;;;;;;;15.55;84.08;99234.63;5045621;28;20209;-65
2021/10/08 11:13:51;;;;;;;10.13;7.53;;;;;;;15.58;85.95;99240.56;5056104;28;20245;-65
2021/10/08 11:16:30;;;;;;;9.50;7.47;;;;;;;15.42;84.77;99236.47;5058920;28;20220;-65
2021/10/08 11:18:56;;;;;;;11.00;8.00;;;;;;;15.28;87.06;99237.41;5047734;28;20217;-65
2021/10/08 11:21:51;;;;;;;9.40;7.33;;;;;;;15.38;87.23;99234.97;5055915;28;20671;-65
2021/10/08 11:24:21;;;;;;;8.07;6.90;;;;;;;15.49;87.54;99224.41;5053922;28;20216;-65
2021/10/08 11:26:57;;;;;;;9.87;7.47;;;;;;;15.57;84.31;99230.03;5056075;28;20248;-65
2021/10/08 11:29:26;;;;;;;10.37;8.10;;;;;;;15.58;84.04;99226.41;5056136;28;20308;-65
2021/10/08 11:31:59;;;;;;;9.07;7.33;;;;;;;15.47;85.82;99229.81;5058270;28;20586;-65
2021/10/08 11:34:26;;;;;;;9.47;7.23;;;;;;;15.48;86.67;99220.91;5054725;28;20738;-65